createdAt,value
2023-04-02T00:01:00.939Z,99971.16
2023-04-02T00:03:42.773Z,99982.31
2023-04-02T00:06:30.472Z,99984.44
2023-04-02T00:09:22.950Z,99982.63
2023-04-02T00:11:55.996Z,99987.34
2023-04-02T00:14:27.305Z,99980.00
2023-04-02T00:16:57.044Z,99979.59
2023-04-02T00:19:48.763Z,99981.69
2023-04-02T00:22:20.087Z,99987.06
2023-04-02T00:24:52.673Z,99984.56
2023-04-02T00:27:21.376Z,99990.69
2023-04-02T00:29:51.856Z,99989.84
2023-04-02T00:32:30.100Z,99992.06
2023-04-02T00:34:59.625Z,99994.97
2023-04-02T00:37:38.874Z,99996.22
2023-04-02T00:40:21.115Z,99992.59
2023-04-02T00:42:50.450Z,99984.13
2023-04-02T00:45:30.269Z,99988.69
2023-04-02T00:48:01.244Z,99990.63
2023-04-02T00:50:40.644Z,99985.78
2023-04-02T00:53:15.878Z,99994.94
2023-04-02T00:55:44.735Z,99983.41
2023-04-02T00:58:32.221Z,99994.09
2023-04-02T01:01:02.142Z,100000.66
2023-04-02T01:03:37.139Z,99995.06
2023-04-02T01:06:14.334Z,99992.16
2023-04-02T01:09:10.490Z,99992.16
2023-04-02T01:11:57.402Z,99989.25
2023-04-02T01:14:40.477Z,99987.72
2023-04-02T01:17:18.650Z,99992.03
2023-04-02T01:20:11.701Z,99988.84
2023-04-02T01:23:24.153Z,99987.31
2023-04-02T01:26:06.691Z,99982.50
2023-04-02T01:28:53.325Z,99978.72
2023-04-02T01:31:21.912Z,99982.06
2023-04-02T01:33:49.580Z,99978.34
2023-04-02T01:36:47.165Z,99986.94
2023-04-02T01:39:34.052Z,99978.19
2023-04-02T01:42:18.522Z,99982.63
2023-04-02T01:44:52.603Z,99990.53
2023-04-02T01:47:28.933Z,99992.06
2023-04-02T01:50:02.745Z,99987.75
2023-04-02T01:52:43.778Z,99999.97
2023-04-02T01:55:15.632Z,99998.03
2023-04-02T01:57:49.540Z,99999.56
2023-04-02T02:00:19.258Z,100009.94
2023-04-02T02:02:52.236Z,100005.25
2023-04-02T02:05:23.283Z,100005.38
2023-04-02T02:07:54.685Z,100012.56
2023-04-02T02:10:29.596Z,100011.44
2023-04-02T02:13:00.336Z,100016.84
2023-04-02T02:15:29.348Z,100011.75
2023-04-02T02:18:03.240Z,100019.81
2023-04-02T02:20:33.142Z,100029.09
2023-04-02T02:23:03.955Z,100031.72
2023-04-02T02:25:36.326Z,100033.66
2023-04-02T02:28:15.758Z,100033.25
2023-04-02T02:30:51.335Z,100028.97
2023-04-02T02:33:33.794Z,100036.59
2023-04-02T02:36:29.542Z,100035.84
2023-04-02T02:39:30.680Z,100039.06
2023-04-02T02:42:02.641Z,100048.59
2023-04-02T02:44:36.027Z,100058.50
2023-04-02T02:47:16.712Z,100064.88
2023-04-02T02:49:51.880Z,100074.97
2023-04-02T02:52:32.290Z,100074.09
2023-04-02T02:55:20.873Z,100083.47
2023-04-02T02:58:32.821Z,100075.31
2023-04-02T03:01:12.088Z,100077.84
2023-04-02T03:03:42.811Z,100081.22
2023-04-02T03:06:16.854Z,100081.00
2023-04-02T03:08:58.286Z,100082.44
2023-04-02T03:11:49.469Z,100088.53
2023-04-02T03:14:35.587Z,100087.38
2023-04-02T03:17:12.826Z,100088.53
2023-04-02T03:19:48.561Z,100083.88
2023-04-02T03:22:36.058Z,100082.22
2023-04-02T03:25:18.208Z,100083.84
2023-04-02T03:27:49.959Z,100086.97
2023-04-02T03:30:43.593Z,100091.00
2023-04-02T03:33:35.114Z,100097.63
2023-04-02T03:36:25.807Z,100093.56
2023-04-02T03:38:58.000Z,100098.81
2023-04-02T03:42:09.856Z,100092.97
2023-04-02T03:44:50.508Z,100092.38
2023-04-02T03:47:32.205Z,100101.16
2023-04-02T03:50:28.976Z,100090.47
2023-04-02T03:53:01.614Z,100104.06
2023-04-02T03:55:33.898Z,100107.13
2023-04-02T03:58:41.210Z,100101.00
2023-04-02T04:01:24.360Z,100111.22
2023-04-02T04:04:02.208Z,100113.34
2023-04-02T04:06:33.193Z,100114.63
2023-04-02T04:09:19.411Z,100125.41
2023-04-02T04:11:52.724Z,100129.00
2023-04-02T04:14:34.023Z,100127.25
2023-04-02T04:17:13.941Z,100129.81
2023-04-02T04:19:58.595Z,100135.22
2023-04-02T04:22:33.281Z,100138.38
2023-04-02T04:25:29.904Z,100138.75
2023-04-02T04:28:27.270Z,100134.97
2023-04-02T04:31:09.597Z,100149.94
2023-04-02T04:33:46.344Z,100146.47
2023-04-02T04:36:28.749Z,100150.38
2023-04-02T04:39:14.686Z,100157.53
2023-04-02T04:41:49.262Z,100153.34
2023-04-02T04:44:24.309Z,100163.38
2023-04-02T04:47:02.576Z,100170.44
2023-04-02T04:49:45.148Z,100177.41
2023-04-02T04:52:21.112Z,100187.59
2023-04-02T04:54:49.293Z,100192.97
2023-04-02T04:57:38.544Z,100196.88
2023-04-02T05:00:29.004Z,100203.88
2023-04-02T05:03:17.381Z,100204.88
2023-04-02T05:05:46.437Z,100217.97
2023-04-02T05:08:23.215Z,100221.38
2023-04-02T05:11:01.541Z,100222.53
2023-04-02T05:13:37.725Z,100231.94
2023-04-02T05:16:20.753Z,100227.28
2023-04-02T05:19:08.983Z,100235.13
2023-04-02T05:21:37.317Z,100225.50
2023-04-02T05:24:42.363Z,100226.44
2023-04-02T05:27:18.778Z,100222.84
2023-04-02T05:30:01.147Z,100233.75
2023-04-02T05:32:34.864Z,100231.50
2023-04-02T05:35:06.668Z,100237.44
2023-04-02T05:37:39.567Z,100246.25
2023-04-02T05:40:21.283Z,100245.28
2023-04-02T05:42:53.254Z,100261.84
2023-04-02T05:45:21.792Z,100265.88
2023-04-02T05:47:53.034Z,100279.63
2023-04-02T05:50:30.799Z,100285.03
2023-04-02T05:53:08.896Z,100303.66
2023-04-02T05:55:48.960Z,100299.25
2023-04-02T05:58:35.256Z,100305.47
2023-04-02T06:01:42.202Z,100308.81
2023-04-02T06:04:30.105Z,100308.94
2023-04-02T06:07:10.163Z,100311.84
2023-04-02T06:10:03.474Z,100316.19
2023-04-02T06:12:55.551Z,100322.38
2023-04-02T06:15:24.332Z,100327.50
2023-04-02T06:18:01.872Z,100337.06
2023-04-02T06:20:30.843Z,100343.06
2023-04-02T06:23:19.935Z,100357.72
2023-04-02T06:25:58.919Z,100363.72
2023-04-02T06:28:33.349Z,100355.94
2023-04-02T06:31:08.264Z,100364.50
2023-04-02T06:33:37.944Z,100376.47
2023-04-02T06:36:08.547Z,100374.00
2023-04-02T06:38:38.111Z,100375.19
2023-04-02T06:41:20.660Z,100377.72
2023-04-02T06:44:21.620Z,100373.56
2023-04-02T06:47:22.312Z,100378.06
2023-04-02T06:50:33.597Z,100378.09
2023-04-02T06:53:06.499Z,100371.66
2023-04-02T06:56:08.956Z,100382.22
2023-04-02T06:58:36.678Z,100394.13
2023-04-02T07:01:04.866Z,100384.16
2023-04-02T07:03:41.932Z,100396.28
2023-04-02T07:06:28.365Z,100393.84
2023-04-02T07:08:59.620Z,100394.13
2023-04-02T07:11:28.140Z,100395.56
2023-04-02T07:13:59.187Z,100405.16
2023-04-02T07:16:29.595Z,100407.88
2023-04-02T07:19:00.841Z,100414.34
2023-04-02T07:21:32.252Z,100420.47
2023-04-02T07:24:00.432Z,100422.03
2023-04-02T07:26:28.478Z,100426.41
2023-04-02T07:28:56.954Z,100429.22
2023-04-02T07:31:28.032Z,100432.88
2023-04-02T07:34:00.004Z,100438.75
2023-04-02T07:36:30.762Z,100448.34
2023-04-02T07:38:59.646Z,100446.44
2023-04-02T07:41:27.754Z,100448.81
2023-04-02T07:43:55.460Z,100456.31
2023-04-02T07:46:23.230Z,100461.44
2023-04-02T07:48:51.095Z,100455.81
2023-04-02T07:51:20.332Z,100456.31
2023-04-02T07:53:56.347Z,100461.00
2023-04-02T07:56:25.592Z,100463.78
2023-04-02T07:58:53.252Z,100466.47
2023-04-02T08:01:24.500Z,100463.31
2023-04-02T08:03:58.022Z,100471.47
2023-04-02T08:06:26.243Z,100471.16
2023-04-02T08:08:54.630Z,100473.50
2023-04-02T08:11:22.314Z,100479.03
2023-04-02T08:13:50.829Z,100476.63
2023-04-02T08:16:19.084Z,100479.66
2023-04-02T08:18:47.942Z,100476.72
2023-04-02T08:21:16.668Z,100484.34
2023-04-02T08:23:45.030Z,100489.91
2023-04-02T08:26:18.980Z,100491.38
2023-04-02T08:28:46.767Z,100487.41
2023-04-02T08:31:14.570Z,100490.94
2023-04-02T08:33:42.358Z,100487.75
2023-04-02T08:36:16.935Z,100500.72
2023-04-02T08:38:45.564Z,100514.38
2023-04-02T08:41:38.959Z,100520.75
2023-04-02T08:44:23.463Z,100532.09
2023-04-02T08:47:04.880Z,100527.28
2023-04-02T08:49:54.874Z,100524.41
2023-04-02T08:52:24.337Z,100518.19
2023-04-02T08:54:53.569Z,100518.63
2023-04-02T08:57:30.637Z,100519.91
2023-04-02T09:00:22.062Z,100508.06
2023-04-02T09:02:58.024Z,100489.00
2023-04-02T09:05:31.396Z,100502.09
2023-04-02T09:08:05.283Z,100514.59
2023-04-02T09:10:39.305Z,100510.25
2023-04-02T09:13:20.692Z,100516.94
2023-04-02T09:15:50.678Z,100516.47
2023-04-02T09:18:20.093Z,100522.63
2023-04-02T09:20:49.503Z,100526.31
2023-04-02T09:23:23.226Z,100533.44
2023-04-02T09:26:03.616Z,100532.00
2023-04-02T09:28:32.367Z,100535.00
2023-04-02T09:31:18.243Z,100532.91
2023-04-02T09:33:49.462Z,100533.97
2023-04-02T09:36:32.846Z,100528.69
2023-04-02T09:39:07.145Z,100532.59
2023-04-02T09:41:37.230Z,100535.44
2023-04-02T09:44:21.347Z,100552.56
2023-04-02T09:46:53.158Z,100552.69
2023-04-02T09:49:25.669Z,100547.94
2023-04-02T09:52:11.989Z,100548.47
2023-04-02T09:54:41.707Z,100542.84
2023-04-02T09:57:25.380Z,100539.03
2023-04-02T10:00:39.650Z,100540.34
2023-04-02T10:03:33.083Z,100534.41
2023-04-02T10:06:11.087Z,100538.84
2023-04-02T10:08:42.418Z,100538.59
2023-04-02T10:11:43.708Z,100535.22
2023-04-02T10:14:23.142Z,100526.88
2023-04-02T10:16:55.510Z,100525.38
2023-04-02T10:19:26.717Z,100523.03
2023-04-02T10:21:57.189Z,100522.34
2023-04-02T10:24:29.310Z,100516.72
2023-04-02T10:27:29.681Z,100516.09
2023-04-02T10:30:20.469Z,100513.91
2023-04-02T10:33:00.957Z,100506.03
2023-04-02T10:35:43.491Z,100499.00
2023-04-02T10:38:52.921Z,100504.22
2023-04-02T10:41:49.311Z,100503.50
2023-04-02T10:44:32.326Z,100505.03
2023-04-02T10:47:33.104Z,100505.25
2023-04-02T10:50:38.494Z,100501.16
2023-04-02T10:53:16.821Z,100503.31
2023-04-02T10:55:49.265Z,100489.91
2023-04-02T10:58:50.678Z,100487.09
2023-04-02T11:01:24.068Z,100490.28
2023-04-02T11:04:00.207Z,100491.59
2023-04-02T11:06:44.258Z,100490.53
2023-04-02T11:09:26.787Z,100504.50
2023-04-02T11:11:58.020Z,100512.38
2023-04-02T11:14:31.531Z,100512.09
2023-04-02T11:17:00.792Z,100513.88
2023-04-02T11:19:28.316Z,100528.81
2023-04-02T11:21:59.593Z,100523.56
2023-04-02T11:24:37.372Z,100529.75
2023-04-02T11:27:06.685Z,100537.41
2023-04-02T11:29:34.882Z,100544.50
2023-04-02T11:32:21.556Z,100543.88
2023-04-02T11:34:59.511Z,100556.31
2023-04-02T11:37:36.195Z,100558.44
2023-04-02T11:40:07.204Z,100561.75
2023-04-02T11:42:35.501Z,100573.22
2023-04-02T11:45:24.638Z,100582.13
2023-04-02T11:48:02.093Z,100590.28
2023-04-02T11:50:41.004Z,100581.44
2023-04-02T11:53:12.213Z,100580.19
2023-04-02T11:55:40.132Z,100596.38
2023-04-02T11:58:32.246Z,100592.16
2023-04-02T12:00:59.692Z,100591.84
2023-04-02T12:03:46.910Z,100586.63
2023-04-02T12:06:18.846Z,100591.38
2023-04-02T12:08:59.114Z,100584.91
2023-04-02T12:11:44.819Z,100588.66
2023-04-02T12:14:35.231Z,100586.97
2023-04-02T12:17:06.282Z,100583.34
2023-04-02T12:19:35.785Z,100579.28
2023-04-02T12:22:03.849Z,100576.47
2023-04-02T12:24:31.794Z,100569.56
2023-04-02T12:27:17.976Z,100560.84
2023-04-02T12:29:45.528Z,100558.06
2023-04-02T12:32:29.549Z,100546.38
2023-04-02T12:35:04.742Z,100553.34
2023-04-02T12:37:32.835Z,100532.91
2023-04-02T12:40:02.511Z,100534.03
2023-04-02T12:42:35.148Z,100533.59
2023-04-02T12:45:03.904Z,100513.06
2023-04-02T12:47:32.144Z,100507.59
2023-04-02T12:50:00.851Z,100500.53
2023-04-02T12:52:29.141Z,100487.41
2023-04-02T12:55:03.152Z,100495.84
2023-04-02T12:57:33.663Z,100489.69
2023-04-02T13:00:06.500Z,100490.03
2023-04-02T13:02:45.039Z,100478.22
2023-04-02T13:05:13.457Z,100478.97
2023-04-02T13:07:47.357Z,100476.16
2023-04-02T13:10:25.798Z,100472.97
2023-04-02T13:13:01.730Z,100474.28
2023-04-02T13:15:32.139Z,100462.88
2023-04-02T13:18:19.230Z,100457.44
2023-04-02T13:21:00.521Z,100452.00
2023-04-02T13:23:29.680Z,100441.34
2023-04-02T13:25:59.850Z,100441.22
2023-04-02T13:28:28.457Z,100434.19
2023-04-02T13:30:56.474Z,100431.00
2023-04-02T13:33:24.486Z,100437.53
2023-04-02T13:35:51.938Z,100424.41
2023-04-02T13:38:19.772Z,100429.88
2023-04-02T13:40:47.124Z,100429.84
2023-04-02T13:43:17.349Z,100430.56
2023-04-02T13:45:49.034Z,100430.16
2023-04-02T13:48:18.326Z,100434.09
2023-04-02T13:50:46.779Z,100422.84
2023-04-02T13:53:31.139Z,100437.00
2023-04-02T13:55:58.858Z,100433.94
2023-04-02T13:58:27.210Z,100436.06
2023-04-02T14:00:55.230Z,100426.91
2023-04-02T14:03:23.672Z,100425.25
2023-04-02T14:06:03.256Z,100428.53
2023-04-02T14:08:36.776Z,100432.91
2023-04-02T14:11:21.862Z,100427.28
2023-04-02T14:13:52.387Z,100429.97
2023-04-02T14:16:31.853Z,100424.28
2023-04-02T14:19:00.334Z,100430.88
2023-04-02T14:22:06.362Z,100419.13
2023-04-02T14:24:49.362Z,100424.84
2023-04-02T14:27:16.695Z,100434.28
2023-04-02T14:29:51.175Z,100425.81
2023-04-02T14:32:29.437Z,100436.34
2023-04-02T14:35:16.364Z,100423.09
2023-04-02T14:38:02.145Z,100418.16
2023-04-02T14:40:52.100Z,100418.09
2023-04-02T14:43:36.920Z,100420.28
2023-04-02T14:46:10.294Z,100432.88
2023-04-02T14:48:41.071Z,100429.84
2023-04-02T14:51:16.122Z,100429.81
2023-04-02T14:53:55.841Z,100429.09
2023-04-02T14:56:24.534Z,100431.63
2023-04-02T14:59:05.732Z,100429.13
2023-04-02T15:01:40.527Z,100439.59
2023-04-02T15:04:14.444Z,100436.28
2023-04-02T15:06:44.978Z,100429.59
2023-04-02T15:09:31.502Z,100437.78
2023-04-02T15:12:07.333Z,100438.44
2023-04-02T15:14:38.225Z,100434.03
2023-04-02T15:17:07.360Z,100444.16
2023-04-02T15:19:34.857Z,100439.06
2023-04-02T15:22:21.581Z,100436.44
2023-04-02T15:25:08.111Z,100437.16
2023-04-02T15:27:52.144Z,100435.69
2023-04-02T15:30:19.997Z,100432.91
2023-04-02T15:32:49.078Z,100435.44
2023-04-02T15:35:38.714Z,100436.81
2023-04-02T15:38:12.377Z,100434.72
2023-04-02T15:40:50.562Z,100438.78
2023-04-02T15:43:21.412Z,100432.44
2023-04-02T15:46:08.056Z,100431.03
2023-04-02T15:48:39.460Z,100435.66
2023-04-02T15:51:42.422Z,100436.50
2023-04-02T15:54:16.012Z,100441.22
2023-04-02T15:56:59.070Z,100449.88
2023-04-02T15:59:41.010Z,100444.06
2023-04-02T16:02:32.111Z,100440.66
2023-04-02T16:05:26.237Z,100441.13
2023-04-02T16:07:57.538Z,100445.38
2023-04-02T16:10:41.121Z,100442.47
2023-04-02T16:13:26.154Z,100446.22
2023-04-02T16:16:06.258Z,100460.19
2023-04-02T16:18:53.636Z,100450.22
2023-04-02T16:21:28.302Z,100462.38
2023-04-02T16:23:56.143Z,100461.88
2023-04-02T16:26:24.088Z,100461.56
2023-04-02T16:28:51.941Z,100470.69
2023-04-02T16:31:22.352Z,100471.84
2023-04-02T16:33:53.313Z,100469.66
2023-04-02T16:36:23.897Z,100471.50
2023-04-02T16:38:57.931Z,100475.69
2023-04-02T16:41:52.156Z,100474.69
2023-04-02T16:44:35.914Z,100477.53
2023-04-02T16:47:12.178Z,100479.03
2023-04-02T16:49:49.806Z,100484.66
2023-04-02T16:52:26.350Z,100481.59
2023-04-02T16:55:11.561Z,100490.44
2023-04-02T16:57:58.184Z,100483.00
2023-04-02T17:00:48.447Z,100495.41
2023-04-02T17:03:38.783Z,100491.38
2023-04-02T17:06:08.639Z,100496.53
2023-04-02T17:08:41.910Z,100497.25
2023-04-02T17:11:13.099Z,100505.28
2023-04-02T17:13:50.543Z,100505.28
2023-04-02T17:16:22.111Z,100501.59
2023-04-02T17:18:53.231Z,100507.22
2023-04-02T17:21:24.236Z,100502.19
2023-04-02T17:23:56.867Z,100500.88
2023-04-02T17:26:30.562Z,100505.50
2023-04-02T17:29:00.956Z,100504.44
2023-04-02T17:31:34.073Z,100509.84
2023-04-02T17:34:09.958Z,100519.66
2023-04-02T17:36:56.273Z,100515.97
2023-04-02T17:39:39.314Z,100513.84
2023-04-02T17:42:09.788Z,100526.09
2023-04-02T17:44:37.172Z,100531.59
2023-04-02T17:47:05.783Z,100530.56
2023-04-02T17:49:49.232Z,100540.75
2023-04-02T17:52:38.326Z,100538.69
2023-04-02T17:55:11.785Z,100548.50
2023-04-02T17:57:45.940Z,100551.75
2023-04-02T18:00:22.588Z,100560.69
2023-04-02T18:03:01.212Z,100569.50
2023-04-02T18:05:43.093Z,100568.66
2023-04-02T18:08:31.390Z,100577.44
2023-04-02T18:11:19.845Z,100575.06
2023-04-02T18:14:00.691Z,100579.66
2023-04-02T18:16:34.633Z,100585.78
2023-04-02T18:19:14.978Z,100592.16
2023-04-02T18:21:47.086Z,100600.19
2023-04-02T18:24:17.761Z,100603.25
2023-04-02T18:26:54.068Z,100606.84
2023-04-02T18:29:25.119Z,100606.59
2023-04-02T18:32:05.185Z,100607.22
2023-04-02T18:34:33.179Z,100614.31
2023-04-02T18:37:10.043Z,100622.75
2023-04-02T18:40:10.416Z,100631.38
2023-04-02T18:42:38.238Z,100628.63
2023-04-02T18:45:18.933Z,100629.09
2023-04-02T18:47:53.053Z,100632.41
2023-04-02T18:50:32.683Z,100630.75
2023-04-02T18:53:08.719Z,100634.44
2023-04-02T18:55:37.017Z,100644.38
2023-04-02T18:58:09.897Z,100640.19
2023-04-02T19:00:42.079Z,100646.22
2023-04-02T19:03:10.522Z,100651.06
2023-04-02T19:05:41.865Z,100649.78
2023-04-02T19:08:32.510Z,100655.50
2023-04-02T19:11:13.376Z,100653.47
2023-04-02T19:13:41.136Z,100645.88
2023-04-02T19:16:28.768Z,100657.47
2023-04-02T19:18:56.785Z,100664.72
2023-04-02T19:21:34.307Z,100667.06
2023-04-02T19:24:04.767Z,100672.19
2023-04-02T19:26:45.519Z,100675.59
2023-04-02T19:29:16.078Z,100675.03
2023-04-02T19:32:02.321Z,100676.22
2023-04-02T19:34:47.404Z,100671.47
2023-04-02T19:37:35.663Z,100668.00
2023-04-02T19:40:04.789Z,100674.91
2023-04-02T19:42:32.757Z,100685.47
2023-04-02T19:45:00.788Z,100685.59
2023-04-02T19:47:28.205Z,100694.66
2023-04-02T19:49:56.532Z,100695.19
2023-04-02T19:52:24.518Z,100710.97
2023-04-02T19:54:52.390Z,100704.16
2023-04-02T19:57:20.643Z,100699.09
2023-04-02T19:59:48.432Z,100693.91
2023-04-02T20:02:15.819Z,100691.69
2023-04-02T20:04:43.391Z,100691.66
2023-04-02T20:07:11.140Z,100702.59
2023-04-02T20:09:38.523Z,100698.44
2023-04-02T20:12:07.118Z,100711.34
2023-04-02T20:14:34.524Z,100729.63
2023-04-02T20:17:02.009Z,100742.03
2023-04-02T20:19:30.141Z,100747.38
2023-04-02T20:21:57.854Z,100724.50
2023-04-02T20:24:25.757Z,100709.06
2023-04-02T20:26:53.205Z,100698.56
2023-04-02T20:29:22.978Z,100698.16
2023-04-02T20:31:51.332Z,100698.69
2023-04-02T20:34:18.910Z,100703.59
2023-04-02T20:36:47.646Z,100702.84
2023-04-02T20:39:19.532Z,100715.47
2023-04-02T20:41:48.027Z,100728.06
2023-04-02T20:44:15.936Z,100739.94
2023-04-02T20:46:43.931Z,100748.75
2023-04-02T20:49:12.136Z,100750.97
2023-04-02T20:51:39.979Z,100745.75
2023-04-02T20:54:07.341Z,100743.09
2023-04-02T20:56:35.299Z,100736.47
2023-04-02T20:59:03.849Z,100735.38
2023-04-02T21:01:31.839Z,100733.22
2023-04-02T21:04:00.469Z,100748.91
2023-04-02T21:06:29.856Z,100749.63
2023-04-02T21:08:57.945Z,100744.47
2023-04-02T21:11:26.317Z,100743.97
2023-04-02T21:13:54.397Z,100737.06
2023-04-02T21:16:23.311Z,100737.25
2023-04-02T21:18:52.402Z,100742.50
2023-04-02T21:21:20.474Z,100746.06
2023-04-02T21:23:53.888Z,100738.53
2023-04-02T21:26:21.887Z,100741.56
2023-04-02T21:28:50.018Z,100731.97
2023-04-02T21:31:19.479Z,100730.38
2023-04-02T21:33:48.084Z,100739.94
2023-04-02T21:36:17.649Z,100736.69
2023-04-02T21:38:46.768Z,100725.94
2023-04-02T21:41:16.317Z,100732.06
2023-04-02T21:43:44.492Z,100724.72
2023-04-02T21:46:12.388Z,100727.94
2023-04-02T21:48:41.876Z,100737.22
2023-04-02T21:51:11.738Z,100733.53
2023-04-02T21:53:39.964Z,100732.25
2023-04-02T21:56:12.695Z,100737.03
2023-04-02T21:58:41.770Z,100737.88
2023-04-02T22:01:16.863Z,100732.50
2023-04-02T22:03:48.407Z,100734.41
2023-04-02T22:06:20.280Z,100728.63
2023-04-02T22:08:52.398Z,100740.75
2023-04-02T22:11:21.400Z,100734.41
2023-04-02T22:13:49.309Z,100734.78
2023-04-02T22:16:18.255Z,100736.94
2023-04-02T22:18:46.237Z,100737.53
2023-04-02T22:21:14.738Z,100731.09
2023-04-02T22:23:42.986Z,100728.72
2023-04-02T22:26:11.672Z,100732.81
2023-04-02T22:28:40.517Z,100733.66
2023-04-02T22:31:09.797Z,100726.63
2023-04-02T22:33:37.834Z,100717.03
2023-04-02T22:36:05.482Z,100718.00
2023-04-02T22:38:33.940Z,100726.50
2023-04-02T22:41:12.918Z,100722.75
2023-04-02T22:43:41.684Z,100724.94
2023-04-02T22:46:10.809Z,100716.19
2023-04-02T22:48:41.234Z,100722.25
2023-04-02T22:51:10.512Z,100730.53
2023-04-02T22:53:38.619Z,100729.09
2023-04-02T22:56:07.237Z,100729.03
2023-04-02T22:58:35.773Z,100718.16
2023-04-02T23:01:06.948Z,100724.59
2023-04-02T23:03:35.009Z,100723.91
2023-04-02T23:06:04.138Z,100723.91
2023-04-02T23:08:32.025Z,100724.13
2023-04-02T23:11:00.435Z,100729.56
2023-04-02T23:13:28.125Z,100739.34
2023-04-02T23:15:55.630Z,100741.03
2023-04-02T23:18:23.143Z,100742.59
2023-04-02T23:20:51.458Z,100738.53
2023-04-02T23:23:19.353Z,100740.53
2023-04-02T23:25:47.144Z,100749.78
2023-04-02T23:28:14.492Z,100745.03
2023-04-02T23:30:43.637Z,100738.94
2023-04-02T23:33:12.022Z,100737.56
2023-04-02T23:35:39.525Z,100731.53
2023-04-02T23:38:07.877Z,100733.88
2023-04-02T23:40:35.414Z,100734.16
2023-04-02T23:43:02.878Z,100738.34
2023-04-02T23:45:30.966Z,100739.50
2023-04-02T23:47:58.981Z,100742.88
2023-04-02T23:50:26.827Z,100738.19
2023-04-02T23:52:54.820Z,100731.06
2023-04-02T23:55:22.204Z,100722.69
2023-04-02T23:57:50.019Z,100721.50
